首页
METAR-TAF:

METAR-TAF

机场 :

山胡桃, 北卡罗来纳州, 美国

纬度: 35-44-32N, 经度: 081-22-56W, 海拔: 362米

当前天气观测

该预报发布于39分钟前的16:53 UTC
静风
温度 6°C
湿度 39%
气压 1021 hPa
能見度: 16.1公里
天空无云

METAR: KHKY 121653Z 00000KT 10SM CLR 06/M07 A3016 RMK AO2 SLP209 T00561072

时间: 12:32 (17:32 UTC)

预报

该预报发布于6小时和10分钟前的11:22 UTC
预报有效从12日的 12点(UTC)到 13日的 12点(UTC)
风速3节,风向多变
能見度: 10公里
多云层高于19000英尺
从 13日的 0100点(UTC)
风速2节,风向多变
能見度: 10公里
散云层高于15000英尺
从 13日的 1000点(UTC)
风速节,风向
能見度: 10公里
多云层高于7000英尺

TAF: KHKY 121122Z 1212/1312 VRB03KT P6SM BKN190 FM130100 VRB02KT P6SM SCT150 FM131000 00000KT P6SM BKN070

超过4000个机场的气象观测和天气预报(METAR&TAF报告)。

可查询的气象台以黄色和红色小点在地图上表示。

将鼠标移到小点上方,可查看气象台名称。

然后点击查看天气观测和预报。

如需切换地图:点击带黑十字的绿色按钮放大地图;点击带横线的绿色按钮缩小地图;或者点击绿色箭头查看邻近地区的地图。


METAR-TAF: